Time,TemperatureF,DewpointF,PressureIn,WindDirection,WindDirectionDegrees,WindSpeedMPH,WindSpeedGustMPH,Humidity,HourlyPrecipIn,Conditions,Clouds,dailyrainin,SoftwareType,DateUTC
2013-10-20 00:03:00,50.0,39.8,29.93,SSW,201,5.0,7.0,68,0.00,CLR,CLR,0.00,WeatherDisplay:10.37,2013-10-20 05:03:00,
2013-10-20 00:09:00,49.6,39.9,29.93,South,179,5.0,7.0,69,0.00,CLR,CLR,0.00,WeatherDisplay:10.37,2013-10-20 05:09:00,
2013-10-20 00:15:00,49.3,40.0,29.93,South,178,6.0,8.0,70,0.00,CLR,CLR,0.00,WeatherDisplay:10.37,2013-10-20 05:15:00,
2013-10-20 00:21:00,49.0,39.6,29.93,South,173,5.0,7.0,70,0.00,CLR,CLR,0.00,WeatherDisplay:10.37,2013-10-20 05:21:00,
2013-10-20 00:27:00,48.8,39.8,29.93,South,173,5.0,7.0,71,0.00,CLR,CLR,0.00,WeatherDisplay:10.37,2013-10-20 05:27:00,
2013-10-20 00:33:00,48.3,39.7,29.93,South,173,5.0,6.0,72,0.00,CLR,CLR,0.00,WeatherDisplay:10.37,2013-10-20 05:33:00,
2013-10-20 00:39:00,47.9,40.0,29.93,SSE,159,3.0,5.0,74,0.00,CLR,CLR,0.00,WeatherDisplay:10.37,2013-10-20 05:39:00,
2013-10-20 00:45:00,47.3,39.7,29.93,SSE,147,2.0,5.0,75,0.00,CLR,CLR,0.00,WeatherDisplay:10.37,2013-10-20 05:45:00,
2013-10-20 00:51:00,47.0,39.8,29.92,SE,146,5.0,7.0,76,0.00,CLR,CLR,0.00,WeatherDisplay:10.37,2013-10-20 05:51:00,
2013-10-20 00:57:00,46.7,39.6,29.92,SSE,162,2.0,7.0,76,0.00,CLR,CLR,0.00,WeatherDisplay:10.37,2013-10-20 05:57:00,
2013-10-20 01:03:00,46.4,39.5,29.92,SSE,166,6.0,7.0,77,0.00,CLR,CLR,0.00,WeatherDisplay:10.37,2013-10-20 06:03:00,
2013-10-20 01:09:00,46.3,39.4,29.92,SSE,162,3.0,5.0,77,0.00,CLR,CLR,0.00,WeatherDisplay:10.37,2013-10-20 06:09:00,
2013-10-20 01:15:00,45.9,39.1,29.92,SSE,157,2.0,5.0,77,0.00,CLR,CLR,0.00,WeatherDisplay:10.37,2013-10-20 06:15:00,
2013-10-20 01:21:00,45.5,39.0,29.92,SSE,156,2.0,4.0,78,0.00,CLR,CLR,0.00,WeatherDisplay:10.37,2013-10-20 06:21:00,
2013-10-20 01:27:00,45.4,39.2,29.91,SSE,157,3.0,6.0,79,0.00,CLR,CLR,0.00,WeatherDisplay:10.37,2013-10-20 06:27:00,
2013-10-20 01:33:00,44.8,39.3,29.91,SE,138,3.0,4.0,81,0.00,CLR,CLR,0.00,WeatherDisplay:10.37,2013-10-20 06:33:00,
2013-10-20 01:39:00,44.8,39.3,29.91,SSE,161,6.0,7.0,81,0.00,CLR,CLR,0.00,WeatherDisplay:10.37,2013-10-20 06:39:00,
2013-10-20 01:45:00,44.8,39.3,29.91,South,173,6.0,9.0,81,0.00,CLR,CLR,0.00,WeatherDisplay:10.37,2013-10-20 06:45:00,
2013-10-20 01:51:00,44.8,38.7,29.91,South,180,6.0,12.0,79,0.00,CLR,CLR,0.00,WeatherDisplay:10.37,2013-10-20 06:51:00,
2013-10-20 01:57:00,45.2,38.7,29.91,South,183,5.0,7.0,78,0.00,CLR,CLR,0.00,WeatherDisplay:10.37,2013-10-20 06:57:00,
2013-10-20 02:03:00,45.3,38.2,29.91,South,188,5.0,7.0,76,0.00,CLR,CLR,0.00,WeatherDisplay:10.37,2013-10-20 07:03:00,
2013-10-20 02:09:00,46.0,37.4,29.91,SSE,166,6.0,8.0,72,0.00,CLR,CLR,0.00,WeatherDisplay:10.37,2013-10-20 07:09:00,
2013-10-20 02:15:00,46.4,37.5,29.91,South,171,3.0,5.0,71,0.00,CLR,CLR,0.00,WeatherDisplay:10.37,2013-10-20 07:15:00,
2013-10-20 02:21:00,46.8,37.5,29.91,SSW,202,3.0,7.0,70,0.00,CLR,CLR,0.00,WeatherDisplay:10.37,2013-10-20 07:21:00,
2013-10-20 02:27:00,47.2,37.1,29.91,SSW,205,2.0,7.0,68,0.00,CLR,CLR,0.00,WeatherDisplay:10.37,2013-10-20 07:27:00,
2013-10-20 02:33:00,47.5,37.0,29.91,WSW,248,5.0,7.0,67,0.00,CLR,CLR,0.00,WeatherDisplay:10.37,2013-10-20 07:33:00,
2013-10-20 02:39:00,47.8,37.0,29.91,West,261,5.0,7.0,66,0.00,CLR,CLR,0.00,WeatherDisplay:10.37,2013-10-20 07:39:00,
2013-10-20 02:45:00,48.2,36.9,29.91,SW,224,5.0,7.0,65,0.00,CLR,CLR,0.00,WeatherDisplay:10.37,2013-10-20 07:45:00,
2013-10-20 02:51:00,48.2,36.9,29.90,SW,231,3.0,4.0,65,0.00,CLR,CLR,0.00,WeatherDisplay:10.37,2013-10-20 07:51:00,
2013-10-20 02:57:00,48.2,36.5,29.90,SSW,194,5.0,6.0,64,0.00,CLR,CLR,0.00,WeatherDisplay:10.37,2013-10-20 07:57:00,
2013-10-20 03:03:00,48.1,36.5,29.90,WSW,240,5.0,7.0,64,0.00,FEW,FEW,0.00,WeatherDisplay:10.37,2013-10-20 08:03:00,
2013-10-20 03:09:00,48.1,36.5,29.90,SSW,209,5.0,7.0,64,0.00,FEW,FEW,0.00,WeatherDisplay:10.37,2013-10-20 08:09:00,
2013-10-20 03:15:00,48.2,36.2,29.90,SW,230,3.0,7.0,63,0.00,FEW,FEW,0.00,WeatherDisplay:10.37,2013-10-20 08:15:00,
2013-10-20 03:21:00,48.4,36.3,29.90,SW,227,5.0,9.0,63,0.00,FEW,FEW,0.00,WeatherDisplay:10.37,2013-10-20 08:21:00,
2013-10-20 03:27:00,48.6,36.1,29.89,SW,235,5.0,10.0,62,0.00,FEW,FEW,0.00,WeatherDisplay:10.37,2013-10-20 08:27:00,
2013-10-20 03:33:00,48.8,35.9,29.89,SSW,201,5.0,7.0,61,0.00,FEW,FEW,0.00,WeatherDisplay:10.37,2013-10-20 08:33:00,
2013-10-20 03:39:00,48.8,35.9,29.89,South,173,1.0,6.0,61,0.00,FEW,FEW,0.00,WeatherDisplay:10.37,2013-10-20 08:39:00,
2013-10-20 03:45:00,48.4,35.5,29.89,SSE,166,5.0,6.0,61,0.00,FEW,FEW,0.00,WeatherDisplay:10.37,2013-10-20 08:45:00,
2013-10-20 03:51:00,48.6,35.7,29.89,SSE,149,7.0,9.0,61,0.00,FEW,FEW,0.00,WeatherDisplay:10.37,2013-10-20 08:51:00,
2013-10-20 03:57:00,48.4,35.5,29.89,SSE,148,7.0,8.0,61,0.00,FEW,FEW,0.00,WeatherDisplay:10.37,2013-10-20 08:57:00,
2013-10-20 04:03:00,48.2,35.7,29.88,South,169,6.0,7.0,62,0.00,FEW,FEW,0.00,WeatherDisplay:10.37,2013-10-20 09:03:00,
2013-10-20 04:09:00,47.9,35.9,29.88,South,172,6.0,8.0,63,0.00,FEW,FEW,0.00,WeatherDisplay:10.37,2013-10-20 09:09:00,
2013-10-20 04:15:00,47.7,35.7,29.88,SSE,167,3.0,8.0,63,0.00,FEW,FEW,0.00,WeatherDisplay:10.37,2013-10-20 09:15:00,
2013-10-20 04:21:00,47.7,35.7,29.88,South,180,5.0,7.0,63,0.00,FEW,FEW,0.00,WeatherDisplay:10.37,2013-10-20 09:21:00,
2013-10-20 04:27:00,47.8,35.8,29.88,SSE,164,8.0,9.0,63,0.00,FEW,FEW,0.00,WeatherDisplay:10.37,2013-10-20 09:27:00,
2013-10-20 04:33:00,47.8,35.8,29.88,South,172,7.0,8.0,63,0.00,FEW,FEW,0.00,WeatherDisplay:10.37,2013-10-20 09:33:00,
2013-10-20 04:39:00,47.7,35.7,29.88,South,171,7.0,8.0,63,0.00,FEW,FEW,0.00,WeatherDisplay:10.37,2013-10-20 09:39:00,
2013-10-20 04:45:00,47.6,35.6,29.88,SSE,167,6.0,9.0,63,0.00,FEW,FEW,0.00,WeatherDisplay:10.37,2013-10-20 09:45:00,
2013-10-20 04:51:00,47.3,35.7,29.88,SSE,161,7.0,10.0,64,0.00,FEW,FEW,0.00,WeatherDisplay:10.37,2013-10-20 09:51:00,
2013-10-20 04:57:00,47.2,36.0,29.88,South,175,5.0,6.0,65,0.00,FEW,FEW,0.00,WeatherDisplay:10.37,2013-10-20 09:57:00,
2013-10-20 05:03:00,46.6,35.8,29.89,South,186,3.0,5.0,66,0.00,FEW,FEW,0.00,WeatherDisplay:10.37,2013-10-20 10:03:00,
2013-10-20 05:09:00,46.2,35.9,29.89,South,176,3.0,4.0,67,0.00,FEW,FEW,0.00,WeatherDisplay:10.37,2013-10-20 10:09:00,
2013-10-20 05:15:00,45.9,35.9,29.88,South,176,3.0,5.0,68,0.00,FEW,FEW,0.00,WeatherDisplay:10.37,2013-10-20 10:15:00,
2013-10-20 05:21:00,45.5,35.9,29.88,SSE,160,2.0,4.0,69,0.00,FEW,FEW,0.00,WeatherDisplay:10.37,2013-10-20 10:21:00,
2013-10-20 05:27:00,45.4,35.9,29.89,SE,145,3.0,6.0,69,0.00,FEW,FEW,0.00,WeatherDisplay:10.37,2013-10-20 10:27:00,
2013-10-20 05:33:00,45.2,36.0,29.89,SSE,148,2.0,4.0,70,0.00,FEW,FEW,0.00,WeatherDisplay:10.37,2013-10-20 10:33:00,
2013-10-20 05:39:00,45.0,35.8,29.88,SSE,156,3.0,4.0,70,0.00,FEW,FEW,0.00,WeatherDisplay:10.37,2013-10-20 10:39:00,
2013-10-20 05:45:00,44.6,35.7,29.88,SSE,165,2.0,4.0,71,0.00,FEW,FEW,0.00,WeatherDisplay:10.37,2013-10-20 10:45:00,
2013-10-20 05:51:00,44.3,35.8,29.88,SSE,153,0.0,5.0,72,0.00,FEW,FEW,0.00,WeatherDisplay:10.37,2013-10-20 10:51:00,
2013-10-20 05:57:00,44.1,35.6,29.88,SE,143,2.0,5.0,72,0.00,FEW,FEW,0.00,WeatherDisplay:10.37,2013-10-20 10:57:00,
2013-10-20 06:03:00,43.9,35.8,29.88,SSE,154,5.0,8.0,73,0.00,FEW,FEW,0.00,WeatherDisplay:10.37,2013-10-20 11:03:00,
2013-10-20 06:09:00,43.9,35.4,29.88,South,170,6.0,7.0,72,0.00,FEW,FEW,0.00,WeatherDisplay:10.37,2013-10-20 11:09:00,
2013-10-20 06:15:00,44.1,35.6,29.88,South,172,5.0,7.0,72,0.00,FEW,FEW,0.00,WeatherDisplay:10.37,2013-10-20 11:15:00,
2013-10-20 06:21:00,44.1,35.6,29.88,South,171,5.0,6.0,72,0.00,FEW,FEW,0.00,WeatherDisplay:10.37,2013-10-20 11:21:00,
2013-10-20 06:27:00,43.9,35.4,29.88,SSE,166,3.0,5.0,72,0.00,FEW,FEW,0.00,WeatherDisplay:10.37,2013-10-20 11:27:00,
2013-10-20 06:33:00,43.6,35.8,29.88,South,170,0.0,0.0,74,0.00,FEW,FEW,0.00,WeatherDisplay:10.37,2013-10-20 11:33:00,
2013-10-20 06:39:00,43.1,35.4,29.89,SSE,165,0.0,0.0,74,0.00,FEW,FEW,0.00,WeatherDisplay:10.37,2013-10-20 11:39:00,
2013-10-20 06:45:00,42.7,35.6,29.89,SSE,151,2.0,3.0,76,0.00,FEW,FEW,0.00,WeatherDisplay:10.37,2013-10-20 11:45:00,
2013-10-20 06:51:00,42.3,35.6,29.88,SSE,160,3.0,5.0,77,0.00,FEW,FEW,0.00,WeatherDisplay:10.37,2013-10-20 11:51:00,
2013-10-20 06:57:00,41.9,35.2,29.88,SSE,159,3.0,6.0,77,0.00,FEW,FEW,0.00,WeatherDisplay:10.37,2013-10-20 11:57:00,
2013-10-20 07:03:00,41.9,35.5,29.88,SE,136,1.0,5.0,78,0.00,SCT,SCT,0.00,WeatherDisplay:10.37,2013-10-20 12:03:00,
2013-10-20 07:09:00,41.8,35.7,29.88,SE,133,3.0,5.0,79,0.00,SCT,SCT,0.00,WeatherDisplay:10.37,2013-10-20 12:09:00,
2013-10-20 07:15:00,41.5,35.5,29.88,SE,133,0.0,0.0,79,0.00,SCT,SCT,0.00,WeatherDisplay:10.37,2013-10-20 12:15:00,
2013-10-20 07:21:00,41.2,35.1,29.88,SE,129,0.0,3.0,79,0.00,SCT,SCT,0.00,WeatherDisplay:10.37,2013-10-20 12:21:00,
2013-10-20 07:27:00,41.0,35.3,29.88,South,171,0.0,0.0,80,0.00,SCT,SCT,0.00,WeatherDisplay:10.37,2013-10-20 12:27:00,
2013-10-20 07:33:00,40.6,35.5,29.88,South,180,0.0,0.0,82,0.00,SCT,SCT,0.00,WeatherDisplay:10.37,2013-10-20 12:33:00,
2013-10-20 07:39:00,40.0,35.3,29.89,SSE,164,0.0,0.0,83,0.00,SCT,SCT,0.00,WeatherDisplay:10.37,2013-10-20 12:39:00,
2013-10-20 07:45:00,39.6,35.4,29.89,East,98,0.0,0.0,85,0.00,SCT,SCT,0.00,WeatherDisplay:10.37,2013-10-20 12:45:00,
2013-10-20 07:51:00,39.2,35.3,29.89,East,93,0.0,0.0,86,0.00,SCT,SCT,0.00,WeatherDisplay:10.37,2013-10-20 12:51:00,
2013-10-20 07:57:00,39.2,35.3,29.89,East,91,0.0,0.0,86,0.00,SCT,SCT,0.00,WeatherDisplay:10.37,2013-10-20 12:57:00,
2013-10-20 08:03:00,39.2,35.3,29.89,East,90,0.0,0.0,86,0.00,SCT,SCT,0.00,WeatherDisplay:10.37,2013-10-20 13:03:00,
2013-10-20 08:09:00,38.5,35.8,29.88,ESE,105,0.0,0.0,90,0.00,SCT,SCT,0.00,WeatherDisplay:10.37,2013-10-20 13:09:00,
2013-10-20 08:15:00,38.2,35.2,29.88,SSE,168,0.0,0.0,89,0.00,SCT,SCT,0.00,WeatherDisplay:10.37,2013-10-20 13:15:00,
2013-10-20 08:21:00,38.6,36.0,29.88,South,183,5.0,5.0,90,0.00,SCT,SCT,0.00,WeatherDisplay:10.37,2013-10-20 13:21:00,
2013-10-20 08:27:00,39.2,36.2,29.88,SSE,165,3.0,7.0,89,0.00,SCT,SCT,0.00,WeatherDisplay:10.37,2013-10-20 13:27:00,
2013-10-20 08:33:00,39.9,36.3,29.88,South,175,3.0,5.0,87,0.00,SCT,SCT,0.00,WeatherDisplay:10.37,2013-10-20 13:33:00,
2013-10-20 08:39:00,40.3,36.1,29.89,South,181,0.0,3.0,85,0.00,SCT,SCT,0.00,WeatherDisplay:10.37,2013-10-20 13:39:00,
2013-10-20 08:45:00,40.9,36.4,29.89,South,180,3.0,4.0,84,0.00,SCT,SCT,0.00,WeatherDisplay:10.37,2013-10-20 13:45:00,
2013-10-20 08:51:00,41.4,36.6,29.89,SSW,213,2.0,3.0,83,0.00,SCT,SCT,0.00,WeatherDisplay:10.37,2013-10-20 13:51:00,
2013-10-20 08:57:00,41.4,36.6,29.89,SW,230,0.0,0.0,83,0.00,SCT,SCT,0.00,WeatherDisplay:10.37,2013-10-20 13:57:00,
2013-10-20 09:03:00,42.1,36.6,29.90,South,183,6.0,7.0,81,0.00,FEW,FEW,0.00,WeatherDisplay:10.37,2013-10-20 14:03:00,
2013-10-20 09:09:00,43.0,36.9,29.90,South,178,2.0,5.0,79,0.00,FEW,FEW,0.00,WeatherDisplay:10.37,2013-10-20 14:09:00,
2013-10-20 09:15:00,43.7,36.9,29.90,SSW,198,5.0,7.0,77,0.00,FEW,FEW,0.00,WeatherDisplay:10.37,2013-10-20 14:15:00,
2013-10-20 09:21:00,44.3,37.2,29.90,SSE,162,7.0,7.0,76,0.00,FEW,FEW,0.00,WeatherDisplay:10.37,2013-10-20 14:21:00,
2013-10-20 09:27:00,44.9,37.5,29.90,South,178,5.0,6.0,75,0.00,FEW,FEW,0.00,WeatherDisplay:10.37,2013-10-20 14:27:00,
2013-10-20 09:33:00,45.4,37.6,29.90,South,183,5.0,7.0,74,0.00,FEW,FEW,0.00,WeatherDisplay:10.37,2013-10-20 14:33:00,
2013-10-20 09:39:00,45.9,38.0,29.90,SSE,164,6.0,8.0,74,0.00,FEW,FEW,0.00,WeatherDisplay:10.37,2013-10-20 14:39:00,
2013-10-20 09:45:00,45.9,38.0,29.90,SSE,157,5.0,5.0,74,0.00,FEW,FEW,0.00,WeatherDisplay:10.37,2013-10-20 14:45:00,
2013-10-20 09:51:00,45.9,38.0,29.90,SSE,157,5.0,5.0,74,0.00,FEW,FEW,0.00,WeatherDisplay:10.37,2013-10-20 14:51:00,
2013-10-20 09:57:00,45.9,38.0,29.90,SSE,157,5.0,5.0,74,0.00,FEW,FEW,0.00,WeatherDisplay:10.37,2013-10-20 14:57:00,
2013-10-20 10:03:00,45.9,38.0,29.90,SSE,157,5.0,5.0,74,0.00,FEW,FEW,0.00,WeatherDisplay:10.37,2013-10-20 15:03:00,
2013-10-20 10:09:00,45.9,38.0,29.90,SSE,157,5.0,5.0,74,0.00,FEW,FEW,0.00,WeatherDisplay:10.37,2013-10-20 15:09:00,
2013-10-20 10:15:00,45.9,38.0,29.90,SSE,157,5.0,5.0,74,0.00,FEW,FEW,0.00,WeatherDisplay:10.37,2013-10-20 15:15:00,
2013-10-20 10:21:00,47.3,38.4,29.90,SSE,157,5.0,7.0,71,0.00,FEW,FEW,0.00,WeatherDisplay:10.37,2013-10-20 15:21:00,
2013-10-20 10:27:00,50.8,39.0,29.89,SSE,165,8.0,12.0,64,0.00,FEW,FEW,0.00,WeatherDisplay:10.37,2013-10-20 15:27:00,
2013-10-20 10:33:00,51.6,39.8,29.89,SSE,163,3.0,10.0,64,0.00,FEW,FEW,0.00,WeatherDisplay:10.37,2013-10-20 15:33:00,
2013-10-20 10:39:00,52.5,39.8,29.89,West,277,8.0,12.0,62,0.00,FEW,FEW,0.00,WeatherDisplay:10.37,2013-10-20 15:39:00,
2013-10-20 10:45:00,53.1,40.0,29.89,West,277,6.0,7.0,61,0.00,FEW,FEW,0.00,WeatherDisplay:10.37,2013-10-20 15:45:00,
2013-10-20 10:51:00,54.1,41.0,29.89,WSW,244,5.0,7.0,61,0.00,FEW,FEW,0.00,WeatherDisplay:10.37,2013-10-20 15:51:00,
2013-10-20 10:57:00,54.7,40.6,29.89,SW,217,7.0,9.0,59,0.00,FEW,FEW,0.00,WeatherDisplay:10.37,2013-10-20 15:57:00,
2013-10-20 11:03:00,55.4,40.9,29.88,SW,231,6.0,10.0,58,0.00,SCT,SCT,0.00,WeatherDisplay:10.37,2013-10-20 16:03:00,
2013-10-20 11:09:00,56.3,40.8,29.88,SW,228,8.0,10.0,56,0.00,SCT,SCT,0.00,WeatherDisplay:10.37,2013-10-20 16:09:00,
2013-10-20 11:15:00,57.2,40.2,29.88,South,177,12.0,13.0,53,0.00,SCT,SCT,0.00,WeatherDisplay:10.37,2013-10-20 16:15:00,
2013-10-20 11:21:00,57.9,40.8,29.88,South,172,7.0,12.0,53,0.00,SCT,SCT,0.00,WeatherDisplay:10.37,2013-10-20 16:21:00,
2013-10-20 11:27:00,58.5,40.9,29.87,South,184,8.0,12.0,52,0.00,SCT,SCT,0.00,WeatherDisplay:10.37,2013-10-20 16:27:00,
2013-10-20 11:33:00,59.2,41.6,29.87,SSW,207,6.0,10.0,52,0.00,SCT,SCT,0.00,WeatherDisplay:10.37,2013-10-20 16:33:00,
2013-10-20 11:39:00,60.1,41.4,29.88,SW,220,7.0,12.0,50,0.00,SCT,SCT,0.00,WeatherDisplay:10.37,2013-10-20 16:39:00,
2013-10-20 11:45:00,60.7,42.4,29.88,SSW,211,6.0,12.0,51,0.00,SCT,SCT,0.00,WeatherDisplay:10.37,2013-10-20 16:45:00,
2013-10-20 11:51:00,61.1,41.2,29.87,SSW,213,10.0,13.0,48,0.00,SCT,SCT,0.00,WeatherDisplay:10.37,2013-10-20 16:51:00,
2013-10-20 11:57:00,61.4,41.5,29.87,South,176,6.0,12.0,48,0.00,SCT,SCT,0.00,WeatherDisplay:10.37,2013-10-20 16:57:00,
2013-10-20 12:03:00,62.4,41.9,29.86,SSW,206,7.0,12.0,47,0.00,SCT,SCT,0.00,WeatherDisplay:10.37,2013-10-20 17:03:00,
2013-10-20 12:09:00,62.9,42.4,29.86,SW,224,6.0,12.0,47,0.00,SCT,SCT,0.00,WeatherDisplay:10.37,2013-10-20 17:09:00,
2013-10-20 12:15:00,63.4,42.2,29.86,SW,223,7.0,12.0,46,0.00,SCT,SCT,0.00,WeatherDisplay:10.37,2013-10-20 17:15:00,
2013-10-20 12:21:00,63.7,42.0,29.86,SW,225,9.0,13.0,45,0.00,SCT,SCT,0.00,WeatherDisplay:10.37,2013-10-20 17:21:00,
2013-10-20 12:27:00,63.7,41.9,29.86,SW,214,9.0,9.0,45,0.00,SCT,SCT,0.00,WeatherDisplay:10.37,2013-10-20 17:27:00,
2013-10-20 12:33:00,64.7,42.3,29.86,SW,214,3.0,12.0,44,0.00,SCT,SCT,0.00,WeatherDisplay:10.37,2013-10-20 17:33:00,
2013-10-20 12:39:00,65.5,43.6,29.86,WSW,252,5.0,6.0,45,0.00,SCT,SCT,0.00,WeatherDisplay:10.37,2013-10-20 17:39:00,
2013-10-20 12:45:00,65.0,41.9,29.86,SSW,211,7.0,14.0,43,0.00,SCT,SCT,0.00,WeatherDisplay:10.37,2013-10-20 17:45:00,
2013-10-20 12:51:00,66.2,43.0,29.86,SSW,199,7.0,9.0,43,0.00,SCT,SCT,0.00,WeatherDisplay:10.37,2013-10-20 17:51:00,
2013-10-20 12:57:00,65.9,42.7,29.86,SW,234,9.0,13.0,43,0.00,SCT,SCT,0.00,WeatherDisplay:10.37,2013-10-20 17:57:00,
2013-10-20 13:03:00,67.0,43.8,29.85,SW,234,6.0,8.0,43,0.00,SCT,SCT,0.00,WeatherDisplay:10.37,2013-10-20 18:03:00,
2013-10-20 13:09:00,67.8,43.8,29.85,WSW,240,6.0,12.0,42,0.00,SCT,SCT,0.00,WeatherDisplay:10.37,2013-10-20 18:09:00,
2013-10-20 13:15:00,67.1,43.2,29.84,WSW,239,7.0,14.0,42,0.00,SCT,SCT,0.00,WeatherDisplay:10.37,2013-10-20 18:15:00,
2013-10-20 13:21:00,67.1,43.2,29.84,SSW,204,8.0,10.0,42,0.00,SCT,SCT,0.00,WeatherDisplay:10.37,2013-10-20 18:21:00,
2013-10-20 13:27:00,67.6,43.7,29.84,SSW,205,9.0,13.0,42,0.00,SCT,SCT,0.00,WeatherDisplay:10.37,2013-10-20 18:27:00,
2013-10-20 13:33:00,67.8,42.6,29.84,SW,216,8.0,13.0,40,0.00,SCT,SCT,0.00,WeatherDisplay:10.37,2013-10-20 18:33:00,
2013-10-20 13:39:00,67.2,42.7,29.83,SW,216,7.0,13.0,41,0.00,SCT,SCT,0.00,WeatherDisplay:10.37,2013-10-20 18:39:00,
2013-10-20 13:45:00,67.9,43.3,29.83,SW,235,9.0,15.0,41,0.00,SCT,SCT,0.00,WeatherDisplay:10.37,2013-10-20 18:45:00,
2013-10-20 13:51:00,67.9,43.3,29.83,West,259,7.0,10.0,41,0.00,SCT,SCT,0.00,WeatherDisplay:10.37,2013-10-20 18:51:00,
2013-10-20 13:57:00,67.7,43.1,29.83,West,278,6.0,12.0,41,0.00,SCT,SCT,0.00,WeatherDisplay:10.37,2013-10-20 18:57:00,
2013-10-20 14:03:00,68.0,42.8,29.83,West,268,10.0,15.0,40,0.00,SCT,SCT,0.00,WeatherDisplay:10.37,2013-10-20 19:03:00,
2013-10-20 14:09:00,67.9,43.3,29.83,WSW,254,7.0,12.0,41,0.00,SCT,SCT,0.00,WeatherDisplay:10.37,2013-10-20 19:09:00,
2013-10-20 14:15:00,68.1,43.5,29.83,West,271,12.0,17.0,41,0.00,SCT,SCT,0.00,WeatherDisplay:10.37,2013-10-20 19:15:00,
2013-10-20 14:21:00,68.2,42.9,29.83,WNW,288,9.0,17.0,40,0.00,SCT,SCT,0.00,WeatherDisplay:10.37,2013-10-20 19:21:00,
2013-10-20 14:27:00,69.3,44.5,29.82,WSW,255,5.0,10.0,41,0.00,SCT,SCT,0.00,WeatherDisplay:10.37,2013-10-20 19:27:00,
2013-10-20 14:33:00,70.0,44.5,29.82,SW,216,7.0,12.0,40,0.00,SCT,SCT,0.00,WeatherDisplay:10.37,2013-10-20 19:33:00,
2013-10-20 14:39:00,68.6,44.0,29.82,WNW,282,8.0,10.0,41,0.00,SCT,SCT,0.00,WeatherDisplay:10.37,2013-10-20 19:39:00,
2013-10-20 14:45:00,68.8,43.4,29.82,WNW,301,13.0,16.0,40,0.00,SCT,SCT,0.00,WeatherDisplay:10.37,2013-10-20 19:45:00,
2013-10-20 14:51:00,69.1,43.7,29.82,NW,306,12.0,15.0,40,0.00,SCT,SCT,0.00,WeatherDisplay:10.37,2013-10-20 19:51:00,
2013-10-20 14:57:00,69.6,44.2,29.82,WNW,300,7.0,9.0,40,0.00,SCT,SCT,0.00,WeatherDisplay:10.37,2013-10-20 19:57:00,
2013-10-20 15:03:00,70.0,45.2,29.82,West,280,5.0,13.0,41,0.00,FEW,FEW,0.00,WeatherDisplay:10.37,2013-10-20 20:03:00,
2013-10-20 15:09:00,69.8,44.3,29.82,West,273,12.0,15.0,40,0.00,FEW,FEW,0.00,WeatherDisplay:10.37,2013-10-20 20:09:00,
2013-10-20 15:15:00,69.8,44.4,29.81,NW,308,10.0,10.0,40,0.00,FEW,FEW,0.00,WeatherDisplay:10.37,2013-10-20 20:15:00,
2013-10-20 15:21:00,69.8,44.3,29.81,WNW,296,8.0,12.0,40,0.00,FEW,FEW,0.00,WeatherDisplay:10.37,2013-10-20 20:21:00,
2013-10-20 15:27:00,70.4,44.2,29.82,WNW,284,9.0,10.0,39,0.00,FEW,FEW,0.00,WeatherDisplay:10.37,2013-10-20 20:27:00,
2013-10-20 15:33:00,70.0,43.9,29.82,WNW,292,7.0,10.0,39,0.00,FEW,FEW,0.00,WeatherDisplay:10.37,2013-10-20 20:33:00,
2013-10-20 15:39:00,70.5,45.0,29.81,WNW,287,7.0,10.0,40,0.00,FEW,FEW,0.00,WeatherDisplay:10.37,2013-10-20 20:39:00,
2013-10-20 15:45:00,70.8,45.2,29.81,West,272,5.0,7.0,40,0.00,FEW,FEW,0.00,WeatherDisplay:10.37,2013-10-20 20:45:00,
2013-10-20 15:51:00,70.6,44.4,29.81,WSW,256,8.0,13.0,39,0.00,FEW,FEW,0.00,WeatherDisplay:10.37,2013-10-20 20:51:00,
2013-10-20 15:57:00,70.5,45.0,29.81,West,272,2.0,10.0,40,0.00,FEW,FEW,0.00,WeatherDisplay:10.37,2013-10-20 20:57:00,
2013-10-20 16:03:00,69.8,43.8,29.81,WNW,298,9.0,13.0,39,0.00,SCT,SCT,0.00,WeatherDisplay:10.37,2013-10-20 21:03:00,
2013-10-20 16:09:00,70.0,43.9,29.81,West,273,9.0,12.0,39,0.00,SCT,SCT,0.00,WeatherDisplay:10.37,2013-10-20 21:09:00,
2013-10-20 16:15:00,69.8,45.1,29.81,West,275,7.0,12.0,41,0.00,SCT,SCT,0.00,WeatherDisplay:10.37,2013-10-20 21:15:00,
2013-10-20 16:21:00,69.8,45.0,29.81,WNW,285,8.0,12.0,41,0.00,SCT,SCT,0.00,WeatherDisplay:10.37,2013-10-20 21:21:00,
2013-10-20 16:27:00,69.8,45.0,29.82,West,271,7.0,12.0,41,0.00,SCT,SCT,0.00,WeatherDisplay:10.37,2013-10-20 21:27:00,
2013-10-20 16:33:00,69.7,44.9,29.82,West,273,5.0,8.0,41,0.00,SCT,SCT,0.00,WeatherDisplay:10.37,2013-10-20 21:33:00,
2013-10-20 16:39:00,68.9,44.8,29.82,WNW,289,6.0,12.0,42,0.00,SCT,SCT,0.00,WeatherDisplay:10.37,2013-10-20 21:39:00,
2013-10-20 16:45:00,69.1,45.0,29.82,SW,230,5.0,7.0,42,0.00,SCT,SCT,0.00,WeatherDisplay:10.37,2013-10-20 21:45:00,
2013-10-20 16:51:00,69.6,45.5,29.82,SW,233,7.0,10.0,42,0.00,SCT,SCT,0.00,WeatherDisplay:10.37,2013-10-20 21:51:00,
2013-10-20 16:57:00,69.6,44.9,29.82,West,280,5.0,7.0,41,0.00,SCT,SCT,0.00,WeatherDisplay:10.37,2013-10-20 21:57:00,
2013-10-20 17:03:00,70.2,46.0,29.82,WNW,298,6.0,8.0,42,0.00,SCT,SCT,0.00,WeatherDisplay:10.37,2013-10-20 22:03:00,
2013-10-20 17:09:00,69.9,45.1,29.82,WNW,292,5.0,7.0,41,0.00,SCT,SCT,0.00,WeatherDisplay:10.37,2013-10-20 22:09:00,
2013-10-20 17:15:00,69.8,45.6,29.82,SW,236,3.0,7.0,42,0.00,SCT,SCT,0.00,WeatherDisplay:10.37,2013-10-20 22:15:00,
2013-10-20 17:21:00,69.7,45.6,29.82,South,190,2.0,6.0,42,0.00,SCT,SCT,0.00,WeatherDisplay:10.37,2013-10-20 22:21:00,
2013-10-20 17:27:00,68.9,44.8,29.82,SSW,200,0.0,5.0,42,0.00,SCT,SCT,0.00,WeatherDisplay:10.37,2013-10-20 22:27:00,
2013-10-20 17:33:00,68.8,46.0,29.82,West,277,0.0,2.0,44,0.00,SCT,SCT,0.00,WeatherDisplay:10.37,2013-10-20 22:33:00,
2013-10-20 17:39:00,68.8,46.0,29.82,West,271,0.0,3.0,44,0.00,SCT,SCT,0.00,WeatherDisplay:10.37,2013-10-20 22:39:00,
2013-10-20 17:45:00,68.6,46.4,29.82,West,271,0.0,4.0,45,0.00,SCT,SCT,0.00,WeatherDisplay:10.37,2013-10-20 22:45:00,
2013-10-20 17:51:00,68.2,46.0,29.83,South,174,0.0,0.0,45,0.00,SCT,SCT,0.00,WeatherDisplay:10.37,2013-10-20 22:51:00,
2013-10-20 18:03:00,68.4,46.8,29.83,West,266,0.0,0.0,46,0.00,SCT,SCT,0.00,WeatherDisplay:10.37,2013-10-20 23:03:00,
2013-10-20 18:09:00,68.0,48.1,29.83,WSW,237,0.0,0.0,49,0.00,SCT,SCT,0.00,WeatherDisplay:10.37,2013-10-20 23:09:00,
2013-10-20 18:15:00,67.7,48.9,29.84,WNW,297,0.0,0.0,51,0.00,SCT,SCT,0.00,WeatherDisplay:10.37,2013-10-20 23:15:00,
2013-10-20 18:27:00,66.2,47.5,29.84,NW,304,0.0,2.0,51,0.00,SCT,SCT,0.00,WeatherDisplay:10.37,2013-10-20 23:27:00,
2013-10-20 18:33:00,65.8,47.1,29.84,South,174,0.0,0.0,51,0.00,BKN,BKN,0.00,WeatherDisplay:10.37,2013-10-20 23:33:00,
2013-10-20 18:39:00,64.9,46.3,29.85,SE,128,0.0,0.0,51,0.00,BKN,BKN,0.00,WeatherDisplay:10.37,2013-10-20 23:39:00,
2013-10-20 18:45:00,63.7,46.7,29.85,SSE,147,0.0,0.0,54,0.00,BKN,BKN,0.00,WeatherDisplay:10.37,2013-10-20 23:45:00,
2013-10-20 18:51:00,63.0,47.1,29.85,West,274,0.0,0.0,56,0.00,BKN,BKN,0.00,WeatherDisplay:10.37,2013-10-20 23:51:00,
2013-10-20 18:57:00,62.0,47.9,29.85,NW,313,0.0,2.0,60,0.00,BKN,BKN,0.00,WeatherDisplay:10.37,2013-10-20 23:57:00,
2013-10-20 19:03:00,61.3,47.7,29.85,SSE,159,0.0,0.0,61,0.00,SCT,SCT,0.00,WeatherDisplay:10.37,2013-10-21 00:03:00,
2013-10-20 19:09:00,60.4,47.4,29.85,SE,129,0.0,0.0,62,0.00,SCT,SCT,0.00,WeatherDisplay:10.37,2013-10-21 00:09:00,
2013-10-20 19:15:00,59.8,47.6,29.86,WNW,291,0.0,0.0,64,0.00,SCT,SCT,0.00,WeatherDisplay:10.37,2013-10-21 00:15:00,
2013-10-20 19:21:00,59.1,46.9,29.86,WNW,293,0.0,0.0,64,0.00,SCT,SCT,0.00,WeatherDisplay:10.37,2013-10-21 00:21:00,
2013-10-20 19:27:00,58.3,47.4,29.87,WNW,293,0.0,0.0,67,0.00,SCT,SCT,0.00,WeatherDisplay:10.37,2013-10-21 00:27:00,
2013-10-20 19:33:00,57.6,46.7,29.87,WNW,293,0.0,0.0,67,0.00,SCT,SCT,0.00,WeatherDisplay:10.37,2013-10-21 00:33:00,
2013-10-20 19:39:00,57.1,47.4,29.87,WNW,293,0.0,0.0,70,0.00,SCT,SCT,0.00,WeatherDisplay:10.37,2013-10-21 00:39:00,
2013-10-20 19:45:00,56.4,47.5,29.87,NNE,30,0.0,0.0,72,0.00,SCT,SCT,0.00,WeatherDisplay:10.37,2013-10-21 00:45:00,
2013-10-20 19:51:00,56.0,47.8,29.87,WNW,301,0.0,0.0,74,0.00,SCT,SCT,0.00,WeatherDisplay:10.37,2013-10-21 00:51:00,
2013-10-20 19:57:00,55.4,47.9,29.87,NW,312,2.0,3.0,76,0.00,SCT,SCT,0.00,WeatherDisplay:10.37,2013-10-21 00:57:00,
2013-10-20 20:03:00,56.0,47.8,29.88,WNW,282,1.0,3.0,74,0.00,SCT,SCT,0.00,WeatherDisplay:10.37,2013-10-21 01:03:00,
2013-10-20 20:09:00,55.4,47.2,29.88,West,268,0.0,0.0,74,0.00,SCT,SCT,0.00,WeatherDisplay:10.37,2013-10-21 01:09:00,
2013-10-20 20:15:00,55.1,46.6,29.88,WNW,289,0.0,0.0,73,0.00,SCT,SCT,0.00,WeatherDisplay:10.37,2013-10-21 01:15:00,
2013-10-20 20:21:00,55.1,46.2,29.88,NW,310,0.0,0.0,72,0.00,SCT,SCT,0.00,WeatherDisplay:10.37,2013-10-21 01:21:00,
2013-10-20 20:27:00,54.9,46.0,29.89,WNW,295,0.0,2.0,72,0.00,SCT,SCT,0.00,WeatherDisplay:10.37,2013-10-21 01:27:00,
2013-10-20 20:33:00,54.7,45.1,29.89,NW,306,2.0,4.0,70,0.00,SCT,SCT,0.00,WeatherDisplay:10.37,2013-10-21 01:33:00,
2013-10-20 20:39:00,54.9,44.5,29.90,NNE,21,2.0,4.0,68,0.00,SCT,SCT,0.00,WeatherDisplay:10.37,2013-10-21 01:39:00,
2013-10-20 20:45:00,54.9,44.1,29.90,NW,313,0.0,0.0,67,0.00,SCT,SCT,0.00,WeatherDisplay:10.37,2013-10-21 01:45:00,
2013-10-20 20:51:00,54.9,44.1,29.90,NW,318,0.0,0.0,67,0.00,SCT,SCT,0.00,WeatherDisplay:10.37,2013-10-21 01:51:00,
2013-10-20 20:57:00,54.7,43.9,29.90,NNE,32,0.0,0.0,67,0.00,SCT,SCT,0.00,WeatherDisplay:10.37,2013-10-21 01:57:00,
2013-10-20 21:03:00,54.4,44.1,29.90,WNW,289,0.0,0.0,68,0.00,SCT,SCT,0.00,WeatherDisplay:10.37,2013-10-21 02:03:00,
2013-10-20 21:09:00,53.8,43.8,29.90,West,263,0.0,0.0,69,0.00,SCT,SCT,0.00,WeatherDisplay:10.37,2013-10-21 02:09:00,
2013-10-20 21:15:00,53.6,44.0,29.91,WNW,288,0.0,0.0,70,0.00,SCT,SCT,0.00,WeatherDisplay:10.37,2013-10-21 02:15:00,
2013-10-20 21:21:00,53.3,44.1,29.91,WNW,288,0.0,0.0,71,0.00,SCT,SCT,0.00,WeatherDisplay:10.37,2013-10-21 02:21:00,
2013-10-20 21:27:00,52.9,43.7,29.92,West,273,0.0,0.0,71,0.00,SCT,SCT,0.00,WeatherDisplay:10.37,2013-10-21 02:27:00,
2013-10-20 21:33:00,52.6,44.2,29.92,WSW,253,0.0,0.0,73,0.00,SCT,SCT,0.00,WeatherDisplay:10.37,2013-10-21 02:33:00,
2013-10-20 21:39:00,52.1,43.7,29.92,SSW,202,0.0,0.0,73,0.00,SCT,SCT,0.00,WeatherDisplay:10.37,2013-10-21 02:39:00,
2013-10-20 21:45:00,51.4,44.5,29.92,South,180,0.0,0.0,77,0.00,SCT,SCT,0.00,WeatherDisplay:10.37,2013-10-21 02:45:00,
2013-10-20 21:51:00,51.1,43.8,29.92,South,179,0.0,0.0,76,0.00,SCT,SCT,0.00,WeatherDisplay:10.37,2013-10-21 02:51:00,
2013-10-20 21:57:00,50.8,43.5,29.92,West,259,0.0,0.0,76,0.00,SCT,SCT,0.00,WeatherDisplay:10.37,2013-10-21 02:57:00,
2013-10-20 22:03:00,50.3,43.7,29.93,West,276,0.0,0.0,78,0.00,SCT,SCT,0.00,WeatherDisplay:10.37,2013-10-21 03:03:00,
2013-10-20 22:09:00,49.9,44.3,29.93,WNW,284,0.0,0.0,81,0.00,SCT,SCT,0.00,WeatherDisplay:10.37,2013-10-21 03:09:00,
2013-10-20 22:15:00,49.8,44.2,29.93,West,280,0.0,0.0,81,0.00,SCT,SCT,0.00,WeatherDisplay:10.37,2013-10-21 03:15:00,
2013-10-20 22:21:00,49.5,43.9,29.93,WNW,287,0.0,0.0,81,0.00,SCT,SCT,0.00,WeatherDisplay:10.37,2013-10-21 03:21:00,
2013-10-20 22:27:00,49.3,44.0,29.94,WNW,293,0.0,0.0,82,0.00,SCT,SCT,0.00,WeatherDisplay:10.37,2013-10-21 03:27:00,
2013-10-20 22:33:00,49.1,44.4,29.94,West,274,0.0,0.0,84,0.00,BKN,BKN,0.00,WeatherDisplay:10.37,2013-10-21 03:33:00,
2013-10-20 22:39:00,49.0,44.3,29.94,WSW,256,0.0,0.0,84,0.00,BKN,BKN,0.00,WeatherDisplay:10.37,2013-10-21 03:39:00,
2013-10-20 22:45:00,49.0,44.3,29.94,SSW,207,0.0,0.0,84,0.00,BKN,BKN,0.00,WeatherDisplay:10.37,2013-10-21 03:45:00,
2013-10-20 22:51:00,49.0,44.3,29.94,WSW,245,0.0,0.0,84,0.00,BKN,BKN,0.00,WeatherDisplay:10.37,2013-10-21 03:51:00,
2013-10-20 22:57:00,49.0,44.3,29.94,South,169,0.0,0.0,84,0.00,BKN,BKN,0.00,WeatherDisplay:10.37,2013-10-21 03:57:00,
2013-10-20 23:03:00,49.0,44.6,29.95,WNW,302,0.0,0.0,85,0.00,BKN,BKN,0.00,WeatherDisplay:10.37,2013-10-21 04:03:00,
2013-10-20 23:09:00,49.0,44.6,29.95,WNW,284,0.0,0.0,85,0.00,BKN,BKN,0.00,WeatherDisplay:10.37,2013-10-21 04:09:00,
2013-10-20 23:12:00,49.0,44.6,29.95,WNW,282,0.0,0.0,85,0.00,BKN,BKN,0.00,WeatherDisplay:10.37,2013-10-21 04:12:00,
2013-10-20 23:18:00,49.3,44.9,29.96,WSW,254,0.0,0.0,85,0.00,BKN,BKN,0.00,WeatherDisplay:10.37,2013-10-21 04:18:00,
2013-10-20 23:21:00,49.3,44.9,29.96,WSW,258,0.0,0.0,85,0.00,BKN,BKN,0.00,WeatherDisplay:10.37,2013-10-21 04:21:00,
2013-10-20 23:27:00,49.3,44.9,29.96,West,279,0.0,0.0,85,0.00,BKN,BKN,0.00,WeatherDisplay:10.37,2013-10-21 04:27:00,
2013-10-20 23:33:00,49.2,44.9,29.96,West,270,0.0,0.0,85,0.00,BKN,BKN,0.00,WeatherDisplay:10.37,2013-10-21 04:33:00,
2013-10-20 23:36:00,49.1,45.1,29.96,West,270,0.0,0.0,86,0.00,BKN,BKN,0.00,WeatherDisplay:10.37,2013-10-21 04:36:00,
2013-10-20 23:42:00,48.8,44.8,29.96,WNW,282,0.0,0.0,86,0.00,BKN,BKN,0.00,WeatherDisplay:10.37,2013-10-21 04:42:00,
2013-10-20 23:48:00,49.3,44.6,29.96,WNW,289,1.0,4.0,84,0.00,BKN,BKN,0.00,WeatherDisplay:10.37,2013-10-21 04:48:00,
2013-10-20 23:54:00,49.3,44.0,29.97,North,3,1.0,3.0,82,0.00,BKN,BKN,0.00,WeatherDisplay:10.37,2013-10-21 04:54:00,